Time;durP1;ratioP1;P1;durP2;ratioP2;P2;SDS_P1;SDS_P2;PMS_P1;PMS_P2;Temp;Humidity;BMP_temperature;BMP_pressure;BME280_temperature;BME280_humidity;BME280_pressure;Samples;Min_cycle;Max_cycle;Signal;HPM_P1;HPM_P2
2021/11/07 17:17:14;;;;;;;4.40;1.17;;;11.50;99.90;;;;;;4979190;23;20239;-72
2021/11/07 17:19:46;;;;;;;12.73;1.90;;;11.40;99.90;;;;;;4954966;29;20212;-72
2021/11/07 17:22:23;;;;;;;10.17;1.70;;;11.30;99.90;;;;;;4951166;29;20556;-75
2021/11/07 17:24:53;;;;;;;6.83;1.90;;;11.40;99.90;;;;;;4934259;29;20251;-73
2021/11/07 17:27:30;;;;;;;9.20;4.30;;;11.40;99.90;;;;;;4934217;29;20303;-75
2021/11/07 17:30:04;;;;;;;11.93;4.10;;;11.30;99.90;;;;;;4934284;29;20233;-73
2021/11/07 17:32:35;;;;;;;14.67;3.17;;;11.30;99.90;;;;;;4938389;29;20204;-75
2021/11/07 17:35:06;;;;;;;8.63;2.73;;;11.40;99.90;;;;;;4953442;29;20565;-72
2021/11/07 17:37:39;;;;;;;8.63;2.13;;;11.30;99.90;;;;;;4953873;29;20231;-72
2021/11/07 17:40:35;;;;;;;9.60;1.93;;;11.20;99.90;;;;;;4953852;29;20211;-74
2021/11/07 17:56:48;;;;;;;6.43;1.77;;;11.00;99.90;;;;;;4953332;28;20960;-72
2021/11/07 17:59:14;;;;;;;9.30;2.07;;;10.90;99.90;;;;;;4953749;29;20326;-69
2021/11/07 18:01:43;;;;;;;6.83;2.93;;;10.80;99.90;;;;;;4953435;29;20712;-73
2021/11/07 18:04:12;;;;;;;5.87;1.67;;;10.80;99.90;;;;;;4952854;29;20243;-71
2021/11/07 18:06:43;;;;;;;6.80;2.13;;;10.80;99.90;;;;;;4953348;29;20214;-71
2021/11/07 18:09:15;;;;;;;7.37;1.50;;;10.80;99.90;;;;;;4953643;29;20554;-72
2021/11/07 18:11:44;;;;;;;11.00;2.00;;;10.80;99.90;;;;;;4953453;29;20290;-69
2021/11/07 18:14:11;;;;;;;7.20;1.67;;;10.80;99.90;;;;;;4952889;29;20232;-72
2021/11/07 18:16:39;;;;;;;18.67;2.07;;;10.90;99.90;;;;;;4953624;29;20214;-72
2021/11/07 18:19:06;;;;;;;9.33;1.80;;;11.00;99.90;;;;;;4954353;29;20250;-70
2021/11/07 18:21:36;;;;;;;6.53;1.50;;;11.00;99.90;;;;;;4954737;29;20219;-71
2021/11/07 18:24:12;;;;;;;9.30;1.70;;;11.00;99.90;;;;;;4954214;29;20263;-72
2021/11/07 18:26:46;;;;;;;9.67;2.30;;;11.00;99.90;;;;;;4954443;29;20222;-72
2021/11/07 18:29:13;;;;;;;8.30;1.80;;;11.00;99.90;;;;;;4954000;29;20289;-70
2021/11/07 18:31:39;;;;;;;6.77;1.50;;;11.00;99.90;;;;;;4954601;29;20208;-69
2021/11/07 18:34:07;;;;;;;8.13;1.53;;;11.10;99.90;;;;;;4953987;29;20247;-69
2021/11/07 18:36:35;;;;;;;7.00;1.77;;;11.10;99.90;;;;;;4954391;29;20216;-69
2021/11/07 18:39:03;;;;;;;13.87;2.47;;;11.20;99.90;;;;;;4954209;29;20215;-70
2021/11/07 18:41:29;;;;;;;6.37;1.77;;;11.20;99.90;;;;;;4954439;29;20218;-69
2021/11/07 18:43:56;;;;;;;11.60;1.83;;;11.20;99.90;;;;;;4953788;29;20228;-69
2021/11/07 18:46:23;;;;;;;8.30;1.53;;;11.30;99.90;;;;;;4954473;29;20211;-70
2021/11/07 18:48:50;;;;;;;6.77;1.67;;;11.20;99.90;;;;;;4953512;29;20660;-69
2021/11/07 18:51:18;;;;;;;7.83;1.60;;;11.20;99.90;;;;;;4954142;29;20240;-71
2021/11/07 18:53:46;;;;;;;8.57;2.20;;;11.20;99.90;;;;;;4954017;29;20319;-68
2021/11/07 18:56:13;;;;;;;7.03;1.67;;;11.20;99.90;;;;;;4954323;29;20239;-71
2021/11/07 18:58:40;;;;;;;10.07;2.20;;;11.20;99.90;;;;;;4954542;29;20215;-71
2021/11/07 19:01:07;;;;;;;10.90;2.87;;;11.10;99.90;;;;;;4954184;29;20657;-71
2021/11/07 19:03:34;;;;;;;9.37;2.40;;;11.10;99.90;;;;;;4953964;29;20584;-71
2021/11/07 19:06:01;;;;;;;7.17;1.83;;;11.10;99.90;;;;;;4953789;29;20741;-68
2021/11/07 19:08:28;;;;;;;13.00;3.00;;;11.00;99.90;;;;;;4955681;28;20298;-69
2021/11/07 19:10:57;;;;;;;8.70;1.90;;;11.00;99.90;;;;;;4955213;29;20208;-68
2021/11/07 19:13:25;;;;;;;7.10;1.77;;;11.00;99.90;;;;;;4950657;28;20220;-70
2021/11/07 19:15:52;;;;;;;8.03;2.40;;;11.00;99.90;;;;;;4937147;29;20299;-70
2021/11/07 19:18:19;;;;;;;8.07;2.40;;;10.90;99.90;;;;;;4945218;29;20212;-70
2021/11/07 19:20:46;;;;;;;6.93;2.40;;;11.00;99.90;;;;;;4955096;29;20208;-68
2021/11/07 19:23:13;;;;;;;15.53;3.40;;;11.00;99.90;;;;;;4954378;28;20608;-68
2021/11/07 19:25:40;;;;;;;6.10;1.87;;;10.90;99.90;;;;;;4952731;29;20290;-68
2021/11/07 19:28:08;;;;;;;9.43;2.83;;;10.80;99.90;;;;;;4953973;29;20751;-68
2021/11/07 19:30:36;;;;;;;7.87;2.33;;;10.90;99.90;;;;;;4953081;29;20209;-68
2021/11/07 19:33:04;;;;;;;10.00;2.10;;;10.90;99.90;;;;;;4952577;28;20216;-68
2021/11/07 19:35:33;;;;;;;7.90;2.43;;;10.90;99.90;;;;;;4955322;29;20761;-68
2021/11/07 19:38:00;;;;;;;7.03;1.93;;;11.00;99.90;;;;;;4954459;29;20207;-69
2021/11/07 19:40:31;;;;;;;7.33;2.33;;;11.00;99.90;;;;;;4955382;29;20210;-68
2021/11/07 19:42:58;;;;;;;6.87;1.67;;;11.00;99.90;;;;;;4950138;28;20208;-69
2021/11/07 19:45:28;;;;;;;9.23;2.03;;;11.00;99.90;;;;;;4951823;29;20238;-69
2021/11/07 19:47:57;;;;;;;9.20;1.90;;;11.00;99.90;;;;;;4953138;29;20210;-69
2021/11/07 19:50:26;;;;;;;15.27;2.20;;;11.10;99.90;;;;;;4954887;29;20294;-69
2021/11/07 19:52:54;;;;;;;6.17;1.83;;;11.00;99.90;;;;;;4956435;28;20278;-69
2021/11/07 19:55:22;;;;;;;9.37;2.40;;;11.00;99.90;;;;;;4947416;29;20576;-69
2021/11/07 19:57:49;;;;;;;9.47;2.00;;;11.00;99.90;;;;;;4948306;29;20208;-69
2021/11/07 20:06:18;;;;;;;9.90;2.30;;;11.00;99.90;;;;;;4940386;29;20721;-68
2021/11/07 20:08:57;;;;;;;6.10;1.73;;;10.90;99.90;;;;;;4948465;29;20542;-70
2021/11/07 20:11:24;;;;;;;8.00;1.70;;;10.90;99.90;;;;;;4950074;29;20200;-70
2021/11/07 20:13:55;;;;;;;11.20;2.33;;;10.80;99.90;;;;;;4953682;28;20600;-70
2021/11/07 20:16:23;;;;;;;16.77;2.53;;;10.80;99.90;;;;;;4947390;29;20572;-70
2021/11/07 20:18:51;;;;;;;5.10;1.97;;;10.80;99.90;;;;;;4952908;28;20303;-70
2021/11/07 20:21:18;;;;;;;8.10;2.30;;;10.80;99.90;;;;;;4951486;29;20208;-70
2021/11/07 20:23:50;;;;;;;7.60;1.43;;;10.70;99.90;;;;;;4952279;28;20228;-70
2021/11/07 20:26:18;;;;;;;10.07;2.53;;;10.50;99.90;;;;;;4953816;29;20246;-70
2021/11/07 20:28:45;;;;;;;11.03;1.93;;;10.50;99.90;;;;;;4950544;29;20302;-70
2021/11/07 20:31:12;;;;;;;13.40;1.77;;;10.40;99.90;;;;;;4952911;29;20298;-70
2021/11/07 20:33:39;;;;;;;8.23;2.10;;;10.50;99.90;;;;;;4953236;28;20238;-70
2021/11/07 20:36:12;;;;;;;11.17;1.83;;;10.60;99.90;;;;;;4954884;29;20208;-70
2021/11/07 20:38:39;;;;;;;7.30;1.50;;;10.60;99.90;;;;;;4953223;29;20240;-71
2021/11/07 20:41:10;;;;;;;5.83;1.97;;;10.60;99.90;;;;;;4953714;29;20204;-68
2021/11/07 20:43:39;;;;;;;5.80;1.70;;;10.60;99.90;;;;;;4953225;28;20783;-69
2021/11/07 20:49:23;;;;;;;8.87;2.17;;;10.60;99.90;;;;;;4949873;29;20291;-69
2021/11/07 20:51:55;;;;;;;7.20;2.67;;;10.40;99.90;;;;;;4951779;29;20605;-69
2021/11/07 20:54:31;;;;;;;7.87;1.70;;;10.30;99.90;;;;;;4947982;28;20228;-69
2021/11/07 20:57:08;;;;;;;7.47;1.83;;;10.20;99.90;;;;;;4954506;29;20223;-69
2021/11/07 21:02:20;;;;;;;10.20;1.57;;;10.20;99.90;;;;;;4951703;29;20218;-69
2021/11/07 21:04:50;;;;;;;5.13;1.13;;;10.10;99.90;;;;;;4952752;28;20257;-69
2021/11/07 21:07:21;;;;;;;4.67;1.37;;;10.10;99.90;;;;;;4953117;29;20308;-69
2021/11/07 21:10:01;;;;;;;11.57;1.40;;;10.00;99.90;;;;;;4950568;29;20251;-69
2021/11/07 21:12:35;;;;;;;6.80;1.30;;;10.00;99.90;;;;;;4947385;29;20214;-69
2021/11/07 21:15:12;;;;;;;8.43;1.67;;;10.00;99.90;;;;;;4948325;28;20232;-69
2021/11/07 21:18:09;;;;;;;5.30;1.67;;;10.00;99.90;;;;;;4952404;28;20220;-69
2021/11/07 21:23:32;;;;;;;6.17;1.50;;;10.00;99.90;;;;;;4954130;28;20270;-69
2021/11/07 21:26:13;;;;;;;9.30;2.00;;;10.00;99.90;;;;;;4949873;29;20326;-69
2021/11/07 21:28:41;;;;;;;17.47;1.70;;;10.00;99.90;;;;;;4949610;29;20672;-70
2021/11/07 21:31:11;;;;;;;6.33;2.20;;;10.00;99.90;;;;;;4953599;28;20225;-69
2021/11/07 21:33:50;;;;;;;12.80;1.97;;;9.90;99.90;;;;;;4950700;28;20854;-70
2021/11/07 21:36:27;;;;;;;11.10;1.53;;;9.90;99.90;;;;;;4952420;29;20214;-69
2021/11/07 21:39:00;;;;;;;8.27;1.90;;;9.80;99.90;;;;;;4954495;29;20235;-70
2021/11/07 21:41:30;;;;;;;6.33;1.70;;;9.80;99.90;;;;;;4953965;29;20596;-69
2021/11/07 21:43:59;;;;;;;7.13;1.77;;;9.70;99.90;;;;;;4955045;28;20234;-71
2021/11/07 21:46:27;;;;;;;9.20;2.17;;;9.50;99.90;;;;;;4954770;29;20232;-68
2021/11/07 21:48:54;;;;;;;7.73;1.33;;;9.50;99.90;;;;;;4951903;29;20214;-70
2021/11/07 21:51:22;;;;;;;7.37;1.80;;;9.60;99.90;;;;;;4952225;29;20204;-69
2021/11/07 21:53:49;;;;;;;4.63;1.70;;;9.60;99.90;;;;;;4954746;28;20227;-69
2021/11/07 21:56:18;;;;;;;8.13;2.47;;;9.50;99.90;;;;;;4954747;29;20207;-70
2021/11/07 21:58:45;;;;;;;11.80;2.03;;;9.40;99.90;;;;;;4954277;29;20303;-71
2021/11/07 22:01:13;;;;;;;6.73;2.13;;;9.30;99.90;;;;;;4954713;29;20660;-71
2021/11/07 22:03:39;;;;;;;7.03;1.50;;;9.20;99.90;;;;;;4954103;28;20326;-70
